Time;durP1;ratioP1;P1;durP2;ratioP2;P2;SDS_P1;SDS_P2;PMS_P1;PMS_P2;Temp;Humidity;BMP_temperature;BMP_pressure;BME280_temperature;BME280_humidity;BME280_pressure;Samples;Min_cycle;Max_cycle;Signal;HPM_P1;HPM_P2
2023/03/01 00:01:58;;;;;;;;;68.00;53.67;;;;;4.15;78.85;100629.34;6317894;20;2883627;-47
2023/03/01 00:04:28;;;;;;;;;74.67;55.33;;;;;4.05;79.05;100618.00;6316496;20;3647127;-46
2023/03/01 00:06:57;;;;;;;;;70.67;55.67;;;;;3.93;79.01;100623.59;6317311;20;2883818;-47
2023/03/01 00:09:27;;;;;;;;;70.00;54.67;;;;;3.87;79.38;100623.69;6316012;20;3636717;-47
2023/03/01 00:11:55;;;;;;;;;66.50;54.50;;;;;3.91;79.85;100625.41;6318248;20;2867996;-50
2023/03/01 00:14:24;;;;;;;;;62.50;49.00;;;;;3.89;79.05;100628.06;6286371;20;2862782;-48
2023/03/01 00:16:54;;;;;;;;;70.67;53.67;;;;;3.90;79.39;100624.53;6285666;20;3642979;-48
2023/03/01 00:19:23;;;;;;;;;74.00;55.50;;;;;3.86;79.18;100630.78;6315516;20;2893072;-48
2023/03/01 00:21:52;;;;;;;;;71.33;54.00;;;;;3.86;78.96;100627.25;6315021;20;3646147;-45
2023/03/01 00:24:21;;;;;;;;;68.33;51.67;;;;;3.94;79.38;100627.97;6315626;20;2883695;-45
2023/03/01 00:26:57;;;;;;;;;68.67;52.67;;;;;3.90;78.86;100631.63;6317786;20;3625283;-48
2023/03/01 00:29:27;;;;;;;;;67.33;50.00;;;;;3.86;79.45;100629.91;6317382;20;3628372;-47
2023/03/01 00:31:56;;;;;;;;;61.00;50.00;;;;;3.94;79.28;100631.50;6318126;20;2869028;-46
2023/03/01 00:34:25;;;;;;;;;62.50;50.00;;;;;3.98;79.28;100627.03;6284973;20;2862787;-47
2023/03/01 00:36:54;;;;;;;;;73.33;52.67;;;;;3.97;79.07;100625.25;6286640;20;3648264;-47
2023/03/01 00:39:24;;;;;;;;;71.67;54.00;;;;;4.15;78.71;100624.91;6316723;20;2881631;-51
2023/03/01 00:41:53;;;;;;;;;66.67;50.67;;;;;4.13;78.71;100618.75;6316935;20;2885812;-49
2023/03/01 00:44:23;;;;;;;;;70.67;53.00;;;;;4.10;77.99;100617.94;6315132;20;2871224;-47
2023/03/01 00:46:52;;;;;;;;;67.00;51.67;;;;;3.90;79.14;100618.34;6315757;20;3636753;-46
2023/03/01 00:49:24;;;;;;;;;64.00;51.33;;;;;3.96;78.98;100624.41;6316562;20;2875348;-47
2023/03/01 00:51:54;;;;;;;;;67.00;49.33;;;;;3.96;78.97;100624.41;6315382;20;2874383;-46
2023/03/01 00:54:23;;;;;;;;;66.33;50.67;;;;;4.01;79.34;100616.34;6316804;20;3637831;-45
2023/03/01 00:56:52;;;;;;;;;61.00;49.00;;;;;3.95;79.11;100621.78;6314242;20;2859660;-47
2023/03/01 00:59:21;;;;;;;;;60.00;48.50;;;;;4.11;79.13;100611.72;6286513;20;2867993;-46
2023/03/01 01:01:50;;;;;;;;;69.00;50.33;;;;;4.17;78.48;100612.47;6284959;20;2874263;-44
2023/03/01 01:04:20;;;;;;;;;63.67;49.33;;;;;4.28;78.33;100616.69;6315860;20;3625305;-48
2023/03/01 01:06:51;;;;;;;;;65.00;52.00;;;;;4.26;78.11;100613.19;6315972;20;2881621;-49
2023/03/01 01:09:20;;;;;;;;;64.00;50.00;;;;;4.23;78.32;100607.94;6317695;20;2868058;-50
2023/03/01 01:11:51;;;;;;;;;64.67;51.33;;;;;4.04;78.88;100603.00;6281616;20;2875564;-46
2023/03/01 01:14:21;;;;;;;;;70.67;52.00;;;;;4.10;78.94;100613.47;6314336;20;3636716;-47
2023/03/01 01:16:50;;;;;;;;;65.67;53.33;;;;;4.05;78.86;100607.38;6314785;20;2881695;-49
2023/03/01 01:19:20;;;;;;;;;62.00;51.00;;;;;3.87;79.52;100599.78;6314200;20;2875412;-44
2023/03/01 01:21:50;;;;;;;;;62.00;48.50;;;;;4.02;79.34;100602.13;6282645;20;2864874;-46
2023/03/01 01:24:20;;;;;;;;;64.33;51.33;;;;;4.13;79.09;100600.16;6283083;20;2871569;-44
2023/03/01 01:26:50;;;;;;;;;65.00;49.67;;;;;4.05;79.65;100591.44;6316439;20;2871242;-45
2023/03/01 01:29:19;;;;;;;;;67.67;53.00;;;;;4.24;79.27;100594.63;6317129;20;2890118;-47
2023/03/01 01:31:48;;;;;;;;;63.50;51.00;;;;;4.12;79.71;100593.06;6315510;20;2875290;-47
2023/03/01 01:34:21;;;;;;;;;64.00;50.00;;;;;3.80;80.91;100596.38;6283443;20;2865272;-44
2023/03/01 01:36:54;;;;;;;;;63.50;52.00;;;;;3.84;80.95;100591.88;6284998;20;2859829;-45
2023/03/01 01:39:24;;;;;;;;;66.33;52.67;;;;;3.81;80.89;100594.59;6282620;20;2874234;-47
2023/03/01 01:41:53;;;;;;;;;71.00;54.33;;;;;3.78;81.23;100590.22;6313433;20;3642029;-47
2023/03/01 01:44:28;;;;;;;;;70.00;54.00;;;;;3.83;81.46;100580.38;6314232;20;2834100;-45
2023/03/01 01:47:07;;;;;;;;;62.50;49.00;;;;;3.85;81.90;100580.34;6280314;20;2862826;-47
2023/03/01 01:49:54;;;;;;;;;65.33;47.67;;;;;3.84;81.84;100581.25;6282689;20;2871126;-44
2023/03/01 01:52:33;;;;;;;;;64.50;50.50;;;;;3.76;82.03;100584.06;6312887;20;2863854;-45
2023/03/01 01:55:27;;;;;;;;;65.00;51.50;;;;;3.84;81.41;100578.59;6280190;20;2879465;-46
2023/03/01 01:58:04;;;;;;;;;64.50;49.50;;;;;3.76;81.95;100572.56;6282458;20;2866953;-45
2023/03/01 02:00:32;;;;;;;;;55.50;42.50;;;;;3.72;81.70;100564.66;6275421;20;2494125;-48
2023/03/01 02:03:11;;;;;;;;;64.50;49.00;;;;;3.78;81.80;100565.44;6284802;20;2865955;-46
2023/03/01 02:05:58;;;;;;;;;65.50;52.00;;;;;3.72;81.99;100567.31;6277647;20;2873225;-48
2023/03/01 02:08:32;;;;;;;;;61.00;47.50;;;;;3.66;81.76;100564.78;6280131;20;2867989;-45
2023/03/01 02:11:04;;;;;;;;;64.50;51.50;;;;;3.65;82.29;100554.19;6279269;20;2496268;-45
2023/03/01 02:13:34;;;;;;;;;62.50;47.50;;;;;3.87;81.67;100550.19;6281480;20;2874370;-47
2023/03/01 02:16:11;;;;;;;;;58.50;46.00;;;;;3.66;82.08;100551.50;6310640;20;2869009;-49
2023/03/01 02:18:42;;;;;;;;;65.00;50.00;;;;;3.71;82.10;100543.41;6281610;20;2863862;-45
2023/03/01 02:22:03;;;;;;;;;58.00;47.50;;;;;3.63;82.35;100540.91;6280161;20;2863861;-44
2023/03/01 02:25:18;;;;;;;;;64.00;49.50;;;;;3.73;81.95;100547.81;6282259;20;2876384;-47
2023/03/01 02:28:20;;;;;;;;;61.00;45.00;;;;;3.71;81.78;100538.09;6281968;20;2870095;-45
2023/03/01 02:33:39;;;;;;;;;67.50;46.00;;;;;3.84;82.03;100533.44;6281568;20;2882587;-45
2023/03/01 02:36:22;;;;;;;;;56.50;44.00;;;;;3.70;82.46;100531.06;6275054;20;2852313;-45
2023/03/01 02:38:59;;;;;;;;;60.00;45.00;;;;;3.79;82.28;100530.00;6276307;20;2497255;-44
2023/03/01 02:41:35;;;;;;;;;59.00;44.00;;;;;3.81;82.31;100536.16;6280699;20;2866992;-48
2023/03/01 02:44:05;;;;;;;;;56.67;42.67;;;;;3.76;81.91;100528.28;6278967;20;2877446;-45
2023/03/01 02:46:44;;;;;;;;;56.00;43.00;;;;;3.79;81.99;100524.69;6313828;20;2859113;-45
2023/03/01 02:49:24;;;;;;;;;46.50;40.50;;;;;3.68;82.02;100517.81;6282777;20;2854582;-45
2023/03/01 02:52:44;;;;;;;;;54.67;43.33;;;;;3.69;82.72;100522.22;6281087;20;2881251;-50
2023/03/01 02:55:18;;;;;;;;;58.67;45.33;;;;;3.67;82.28;100517.84;6309557;20;2869064;-51
2023/03/01 02:57:51;;;;;;;;;56.67;42.33;;;;;3.56;82.40;100518.06;6312944;20;2873228;-50
2023/03/01 03:00:45;;;;;;;;;50.50;39.00;;;;;3.68;82.64;100519.59;6305789;20;2487834;-47
2023/03/01 03:03:21;;;;;;;;;36.00;32.00;;;;;3.60;82.68;100519.75;6275669;20;2500256;-49
2023/03/01 03:05:50;;;;;;;;;61.67;44.00;;;;;3.74;82.76;100525.66;6279800;20;2875337;-46
2023/03/01 03:08:23;;;;;;;;;54.50;41.50;;;;;3.87;81.92;100528.94;6310354;20;2865478;-45
2023/03/01 03:10:53;;;;;;;;;52.00;42.00;;;;;3.92;81.71;100521.75;6278570;20;2847163;-46
2023/03/01 03:13:21;;;;;;;;;57.00;43.00;;;;;3.84;81.75;100521.03;6277945;20;2870248;-44
2023/03/01 03:15:50;;;;;;;;;56.50;44.50;;;;;3.83;81.60;100521.06;6280405;20;2858709;-45
2023/03/01 03:18:19;;;;;;;;;58.50;43.00;;;;;3.72;82.41;100514.19;6278706;20;2868112;-49
2023/03/01 03:20:52;;;;;;;;;50.50;41.00;;;;;3.76;82.89;100516.78;6276611;20;2496134;-45
2023/03/01 03:23:22;;;;;;;;;47.67;41.00;;;;;3.66;82.56;100519.63;6283018;20;2872230;-47
2023/03/01 03:25:51;;;;;;;;;53.00;43.00;;;;;3.77;82.49;100518.56;6316324;20;2875353;-46
2023/03/01 03:28:21;;;;;;;;;50.67;37.33;;;;;3.84;82.48;100518.38;6287986;20;2878615;-47
2023/03/01 03:30:49;;;;;;;;;52.50;40.50;;;;;3.83;81.91;100524.59;6315503;20;2499757;-46
2023/03/01 03:33:18;;;;;;;;;51.00;40.50;;;;;3.67;82.79;100518.72;6286232;20;2846161;-45
2023/03/01 03:35:49;;;;;;;;;55.50;44.50;;;;;3.83;82.72;100511.31;6287292;20;2863817;-46
2023/03/01 03:38:21;;;;;;;;;54.00;40.00;;;;;3.76;82.77;100517.66;6283821;20;2495004;-46
2023/03/01 03:41:04;;;;;;;;;47.00;36.50;;;;;3.97;81.83;100519.00;6285485;20;2866996;-46
2023/03/01 03:43:38;;;;;;;;;56.33;40.67;;;;;3.89;82.10;100513.84;6282161;20;2872408;-49
2023/03/01 03:46:09;;;;;;;;;47.67;37.00;;;;;3.88;81.78;100512.09;6317621;20;3608740;-45
2023/03/01 03:48:43;;;;;;;;;56.00;40.00;;;;;3.89;81.89;100515.63;6317345;20;3605454;-49
2023/03/01 03:51:16;;;;;;;;;50.50;39.00;;;;;3.87;81.81;100513.00;6314288;20;2865947;-45
2023/03/01 03:53:46;;;;;;;;;51.67;37.67;;;;;3.61;82.19;100512.69;6283614;20;2880615;-45
2023/03/01 03:56:16;;;;;;;;;50.33;37.67;;;;;3.84;81.92;100517.50;6315561;20;2866028;-45
2023/03/01 03:58:45;;;;;;;;;50.33;39.00;;;;;3.80;81.44;100516.69;6317645;20;2853483;-45
2023/03/01 04:01:15;;;;;;;;;40.00;37.00;;;;;3.87;81.48;100512.13;6317356;20;3621066;-45
2023/03/01 04:03:47;;;;;;;;;49.33;35.67;;;;;3.95;80.83;100518.16;6318394;20;3625337;-47
2023/03/01 04:06:16;;;;;;;;;46.50;37.00;;;;;3.83;80.90;100526.38;6316244;20;2860820;-45
2023/03/01 04:08:45;;;;;;;;;45.00;38.00;;;;;3.88;80.93;100520.06;6286724;20;2853406;-46
2023/03/01 04:11:26;;;;;;;;;45.33;39.33;;;;;3.91;80.50;100519.13;6283238;20;2866969;-46
2023/03/01 04:13:59;;;;;;;;;41.00;36.33;;;;;3.98;80.80;100520.75;6317943;20;2865958;-47
2023/03/01 04:16:29;;;;;;;;;44.00;37.33;;;;;4.01;80.67;100520.69;6318066;20;2878437;-46
2023/03/01 04:19:00;;;;;;;;;51.33;40.00;;;;;3.96;80.71;100511.94;6317419;20;2868028;-51
2023/03/01 04:21:29;;;;;;;;;48.67;36.33;;;;;3.93;81.36;100512.88;6315771;20;2877798;-49
2023/03/01 04:23:58;;;;;;;;;32.00;30.50;;;;;3.91;81.58;100525.31;6315228;20;2852365;-50
2023/03/01 04:26:28;;;;;;;;;43.33;34.00;;;;;3.81;80.86;100518.44;6281121;20;2879714;-48
2023/03/01 04:28:57;;;;;;;;;34.50;31.00;;;;;3.80;80.81;100521.13;6315359;20;2862899;-46
2023/03/01 04:31:26;;;;;;;;;41.33;36.00;;;;;3.70;81.24;100516.00;6282665;20;2861821;-48
2023/03/01 04:33:56;;;;;;;;;43.00;38.33;;;;;3.69;80.51;100527.53;6314150;20;3621225;-45
2023/03/01 04:36:28;;;;;;;;;42.50;36.50;;;;;3.57;80.21;100519.81;6317117;20;2867044;-47
2023/03/01 04:38:57;;;;;;;;;29.50;29.50;;;;;3.54;80.85;100521.66;6282926;20;2500334;-47
2023/03/01 04:41:27;;;;;;;;;43.00;39.00;;;;;3.51;80.68;100515.50;6283409;20;2870303;-47
2023/03/01 04:43:55;;;;;;;;;37.50;30.00;;;;;3.54;80.84;100519.00;6313693;20;2863849;-44
2023/03/01 04:46:25;;;;;;;;;46.00;38.00;;;;;3.58;80.66;100518.91;6282424;20;2842060;-48
2023/03/01 04:48:54;;;;;;;;;37.33;35.33;;;;;3.62;80.70;100511.75;6285178;20;2860740;-46
2023/03/01 04:51:24;;;;;;;;;43.33;38.67;;;;;3.60;80.33;100513.56;6314168;20;3627395;-45
2023/03/01 04:53:53;;;;;;;;;37.00;32.50;;;;;3.74;79.88;100504.41;6315578;20;2853508;-48
2023/03/01 04:56:22;;;;;;;;;44.50;36.00;;;;;3.68;79.93;100506.31;6285880;20;2872193;-45
2023/03/01 04:58:54;;;;;;;;;41.00;36.50;;;;;3.64;79.77;100500.19;6283952;20;2869070;-45
2023/03/01 05:01:24;;;;;;;;;46.33;38.33;;;;;3.61;80.41;100505.56;6283436;20;2872186;-45
2023/03/01 05:03:54;;;;;;;;;46.33;36.33;;;;;3.47;80.47;100512.91;6314830;20;3619191;-48
2023/03/01 05:06:23;;;;;;;;;47.67;38.00;;;;;3.54;80.99;100503.94;6312248;20;2861852;-45
2023/03/01 05:08:53;;;;;;;;;45.67;36.00;;;;;3.63;82.73;100509.06;6316530;20;3623602;-46
2023/03/01 05:11:23;;;;;;;;;46.67;38.67;;;;;3.55;81.83;100505.69;6310154;20;2860201;-45
2023/03/01 05:13:54;;;;;;;;;47.00;37.67;;;;;3.65;81.96;100511.69;6315928;20;2866375;-45
2023/03/01 05:16:24;;;;;;;;;41.00;36.33;;;;;3.57;81.85;100510.97;6315236;20;2866041;-46
2023/03/01 05:18:55;;;;;;;;;48.00;40.50;;;;;3.53;83.07;100512.81;6313544;20;2843085;-46
2023/03/01 05:21:25;;;;;;;;;72.50;53.50;;;;;3.45;81.50;100502.34;6281661;20;2887843;-47
2023/03/01 05:23:53;;;;;;;;;55.50;44.50;;;;;3.40;80.99;100506.88;6280879;20;2847298;-50
2023/03/01 05:26:27;;;;;;;;;63.00;45.00;;;;;3.36;81.52;100505.16;6283076;20;2873378;-48
2023/03/01 05:28:58;;;;;;;;;60.33;46.00;;;;;3.47;81.12;100512.91;6283289;20;2874365;-46
2023/03/01 05:31:30;;;;;;;;;44.33;37.67;;;;;3.38;80.59;100518.41;6314112;20;2869146;-46
2023/03/01 05:34:01;;;;;;;;;53.67;39.67;;;;;3.39;81.05;100521.03;6314159;20;2876417;-47
2023/03/01 05:36:30;;;;;;;;;41.50;33.50;;;;;3.32;81.53;100523.81;6315185;20;2859653;-45
2023/03/01 05:38:59;;;;;;;;;52.50;41.00;;;;;3.38;81.82;100521.06;6282386;20;2850399;-48
2023/03/01 05:41:29;;;;;;;;;54.67;41.33;;;;;3.31;82.10;100522.94;6281502;20;2848332;-46
2023/03/01 05:43:58;;;;;;;;;59.67;44.33;;;;;3.29;82.41;100520.34;6314381;20;3629393;-47
2023/03/01 05:46:29;;;;;;;;;51.67;42.00;;;;;3.36;82.64;100528.19;6315056;20;2856039;-45
2023/03/01 05:48:59;;;;;;;;;45.00;39.50;;;;;3.49;82.61;100525.25;6315354;20;2863863;-47
2023/03/01 05:51:29;;;;;;;;;56.00;41.67;;;;;3.53;83.43;100526.09;6280730;20;2872158;-47
2023/03/01 05:53:58;;;;;;;;;47.00;41.00;;;;;3.65;82.56;100532.94;6315343;20;2857641;-46
2023/03/01 05:56:27;;;;;;;;;65.00;47.33;;;;;3.82;81.88;100535.25;6282264;20;2894128;-49
2023/03/01 05:58:57;;;;;;;;;79.33;56.33;;;;;3.80;82.15;100531.75;6315707;20;3647113;-47
2023/03/01 06:01:27;;;;;;;;;62.00;43.00;;;;;3.68;82.72;100527.56;6313428;20;3640881;-49
2023/03/01 06:03:56;;;;;;;;;52.00;42.00;;;;;3.71;83.35;100528.38;6314256;20;2863867;-45
2023/03/01 06:06:25;;;;;;;;;54.50;41.00;;;;;3.78;83.38;100523.81;6282322;20;2853518;-48
2023/03/01 06:08:57;;;;;;;;;64.00;52.33;;;;;3.84;83.00;100526.34;6285309;20;2861770;-46
2023/03/01 06:11:26;;;;;;;;;49.67;41.00;;;;;4.11;82.18;100532.00;6312652;20;2876802;-46
2023/03/01 06:13:55;;;;;;;;;57.50;45.00;;;;;4.22;81.90;100537.09;6313406;20;2862919;-47
2023/03/01 06:16:23;;;;;;;;;49.00;41.00;;;;;4.43;80.89;100538.38;6279325;20;2506612;-46
2023/03/01 06:18:51;;;;;;;;;58.00;46.00;;;;;4.56;80.92;100529.22;6283405;20;2853573;-45
2023/03/01 06:21:20;;;;;;;;;62.00;45.50;;;;;4.56;81.09;100538.06;6282129;20;2883640;-46
2023/03/01 06:23:49;;;;;;;;;44.50;38.50;;;;;4.50;81.79;100532.91;6279205;20;2858744;-46
2023/03/01 06:26:18;;;;;;;;;56.50;44.00;;;;;4.66;81.64;100535.19;6281291;20;2859630;-46
2023/03/01 06:28:47;;;;;;;;;57.50;45.00;;;;;4.58;82.15;100530.94;6283992;20;2859652;-47
2023/03/01 06:31:15;;;;;;;;;55.50;43.00;;;;;4.83;80.53;100533.88;6279310;20;2859649;-45
2023/03/01 06:33:44;;;;;;;;;54.50;44.00;;;;;4.97;80.23;100541.50;6280221;20;2500313;-48
2023/03/01 06:36:14;;;;;;;;;42.33;33.67;;;;;4.95;79.80;100538.03;6283103;20;2877456;-47
2023/03/01 06:38:43;;;;;;;;;54.00;42.50;;;;;4.67;80.32;100543.13;6313649;20;2871169;-45
2023/03/01 06:41:11;;;;;;;;;52.00;40.00;;;;;4.44;82.37;100546.31;6280655;20;2860684;-45
2023/03/01 06:43:40;;;;;;;;;50.00;42.00;;;;;4.61;82.09;100546.81;6282189;20;2860789;-45
2023/03/01 06:46:10;;;;;;;;;51.67;40.00;;;;;4.73;81.55;100544.78;6276407;20;3595038;-46
2023/03/01 06:48:38;;;;;;;;;49.50;43.00;;;;;4.99;81.50;100538.81;6312853;20;2859596;-45
2023/03/01 06:51:08;;;;;;;;;54.00;40.00;;;;;5.04;80.33;100543.09;6278494;20;2864962;-47
2023/03/01 06:53:36;;;;;;;;;53.50;42.00;;;;;5.27;78.88;100544.31;6309548;20;2500296;-47
2023/03/01 06:56:05;;;;;;;;;54.67;42.67;;;;;5.43;77.38;100544.78;6288022;20;2858760;-46
2023/03/01 06:58:34;;;;;;;;;59.00;44.00;;;;;5.45;76.09;100549.16;6318115;20;2866983;-46
2023/03/01 07:01:08;;;;;;;;;54.50;41.50;;;;;5.84;74.71;100546.28;6283870;20;2877423;-48
2023/03/01 07:03:37;;;;;;;;;44.67;36.33;;;;;5.58;74.25;100541.72;6285919;20;2877367;-45
2023/03/01 07:06:06;;;;;;;;;45.50;34.00;;;;;5.12;75.19;100544.72;6317183;20;2848389;-46
2023/03/01 07:08:36;;;;;;;;;54.33;42.67;;;;;5.69;74.34;100544.97;6284388;20;2851287;-45
2023/03/01 07:11:05;;;;;;;;;54.67;42.00;;;;;5.66;73.73;100546.81;6316917;20;3621126;-50
2023/03/01 07:13:35;;;;;;;;;51.33;40.67;;;;;5.42;74.39;100545.69;6318902;20;2873382;-49
2023/03/01 07:16:04;;;;;;;;;45.50;37.00;;;;;5.48;74.03;100549.06;6320119;20;2864905;-46
2023/03/01 07:18:33;;;;;;;;;58.50;45.00;;;;;5.91;73.12;100547.88;6288038;20;2857046;-47
2023/03/01 07:21:12;;;;;;;;;57.00;46.00;;;;;5.62;73.13;100553.16;6288010;20;2747149;-46
2023/03/01 07:23:40;;;;;;;;;60.50;51.50;;;;;5.88;73.43;100550.63;6311846;20;2500375;-50
2023/03/01 07:26:09;;;;;;;;;54.50;41.50;;;;;5.62;72.97;100545.16;6286762;20;2865932;-47
2023/03/01 07:28:39;;;;;;;;;71.33;53.00;;;;;5.84;73.50;100543.63;6287172;20;3653450;-46
2023/03/01 07:31:07;;;;;;;;;59.00;46.00;;;;;5.35;74.31;100533.47;6313251;20;2498292;-47
2023/03/01 07:33:36;;;;;;;;;59.00;45.00;;;;;5.57;74.63;100539.09;6287288;20;2877352;-45
2023/03/01 07:36:06;;;;;;;;;57.00;45.00;;;;;5.89;73.97;100548.84;6286435;20;2864900;-45
2023/03/01 07:38:35;;;;;;;;;51.00;38.50;;;;;5.80;72.73;100547.31;6287404;20;2858656;-47
2023/03/01 07:41:05;;;;;;;;;59.50;46.00;;;;;5.98;71.94;100551.28;6280925;20;2872187;-46
2023/03/01 07:43:35;;;;;;;;;63.33;46.33;;;;;6.28;71.82;100548.63;6287873;20;3637782;-45
2023/03/01 07:46:04;;;;;;;;;45.00;38.00;;;;;5.98;71.18;100543.28;6314824;20;2866962;-47
2023/03/01 07:48:34;;;;;;;;;43.67;32.67;;;;;5.67;70.66;100543.25;6283785;20;3636894;-48
2023/03/01 07:51:06;;;;;;;;;53.67;38.33;;;;;5.66;71.49;100541.47;6316613;20;3633657;-48
2023/03/01 07:53:35;;;;;;;;;53.00;42.00;;;;;6.37;69.93;100540.34;6317889;20;2857647;-48
2023/03/01 07:56:11;;;;;;;;;48.00;39.00;;;;;6.94;68.26;100533.22;6284555;20;2873240;-46
2023/03/01 07:58:43;;;;;;;;;55.67;39.67;;;;;6.52;67.54;100531.00;6315388;20;2864918;-47
2023/03/01 08:01:18;;;;;;;;;47.67;38.00;;;;;6.70;66.75;100532.22;6313578;20;2871198;-47
2023/03/01 08:03:48;;;;;;;;;42.67;33.67;;;;;7.25;64.03;100539.25;6314715;20;2881613;-46
2023/03/01 08:06:18;;;;;;;;;36.33;34.67;;;;;7.17;62.38;100529.78;6316608;20;3637127;-48
2023/03/01 08:08:48;;;;;;;;;49.67;39.33;;;;;7.39;62.48;100527.22;6284387;20;2874353;-46
2023/03/01 08:11:16;;;;;;;;;38.33;31.00;;;;;7.30;62.94;100532.91;6316853;20;3619022;-48
2023/03/01 08:13:49;;;;;;;;;33.50;33.00;;;;;7.46;61.12;100534.09;6284194;20;2859758;-46
2023/03/01 08:16:21;;;;;;;;;41.33;29.00;;;;;8.07;58.82;100526.53;6285161;20;3633588;-48
2023/03/01 08:18:51;;;;;;;;;37.33;33.00;;;;;7.97;58.22;100525.13;6314800;20;2856572;-48
2023/03/01 08:21:20;;;;;;;;;27.50;24.00;;;;;7.79;57.05;100518.66;6313242;20;2835712;-46
2023/03/01 08:23:48;;;;;;;;;28.50;20.50;;;;;7.29;57.22;100515.97;6282073;20;2835708;-46
2023/03/01 08:26:21;;;;;;;;;36.67;31.67;;;;;7.17;57.91;100519.97;6283578;20;2869287;-47
2023/03/01 08:28:50;;;;;;;;;30.33;26.00;;;;;7.27;57.79;100517.84;6315588;20;3581567;-47
2023/03/01 08:31:39;;;;;;;;;32.00;27.50;;;;;7.38;57.39;100514.81;6280819;20;2853427;-47
2023/03/01 08:34:15;;;;;;;;;20.67;17.00;;;;;7.09;57.17;100519.34;6281415;20;3554461;-46
2023/03/01 08:36:46;;;;;;;;;31.33;30.00;;;;;7.61;56.25;100522.88;6316037;20;3596139;-51
2023/03/01 08:39:18;;;;;;;;;25.50;25.50;;;;;7.44;57.70;100525.28;6285296;20;2849371;-46
2023/03/01 08:41:47;;;;;;;;;33.50;27.50;;;;;7.05;57.63;100517.69;6287162;20;2849254;-48
2023/03/01 08:44:16;;;;;;;;;33.00;30.50;;;;;6.96;58.79;100518.03;6285460;20;2851357;-47
2023/03/01 08:46:46;;;;;;;;;35.00;30.33;;;;;7.42;57.66;100521.78;6283448;20;2842009;-46
2023/03/01 08:49:18;;;;;;;;;38.00;32.33;;;;;7.78;55.87;100518.72;6312371;20;3608777;-46
2023/03/01 08:51:47;;;;;;;;;31.50;27.00;;;;;7.76;56.17;100516.09;6281110;20;2500307;-47
2023/03/01 08:54:21;;;;;;;;;39.67;34.00;;;;;7.40;56.58;100519.16;6281858;20;3611699;-47
2023/03/01 08:56:51;;;;;;;;;30.33;28.33;;;;;7.50;56.70;100503.66;6313545;20;2848214;-47
2023/03/01 08:59:20;;;;;;;;;34.33;29.67;;;;;7.83;56.36;100500.72;6313179;20;2864031;-47
2023/03/01 09:01:49;;;;;;;;;26.50;26.50;;;;;7.89;56.16;100503.16;6314518;20;2846205;-46
2023/03/01 09:04:18;;;;;;;;;31.00;28.50;;;;;8.08;54.32;100495.28;6282205;20;2847153;-47
2023/03/01 09:06:48;;;;;;;;;29.67;27.33;;;;;8.38;54.50;100493.25;6284980;20;2850332;-46
2023/03/01 09:09:18;;;;;;;;;31.00;25.50;;;;;8.50;52.03;100498.13;6313954;20;2847277;-47
2023/03/01 09:11:47;;;;;;;;;17.00;17.00;;;;;8.42;50.87;100494.88;6283933;20;2826404;-48
2023/03/01 09:14:15;;;;;;;;;14.67;11.00;;;;;8.97;49.78;100503.34;6314005;20;2783649;-53
2023/03/01 09:16:44;;;;;;;;;24.00;20.00;;;;;9.26;49.79;100493.19;6316794;20;2846166;-47
2023/03/01 09:19:13;;;;;;;;;18.00;16.00;;;;;9.34;47.24;100490.19;6281185;20;2496192;-46
2023/03/01 09:21:51;;;;;;;;;21.33;14.67;;;;;9.20;48.07;100483.63;6283030;20;3548477;-50
2023/03/01 09:24:24;;;;;;;;;28.00;20.50;;;;;9.09;49.21;100477.00;6311292;20;2848401;-48
2023/03/01 09:26:55;;;;;;;;;20.50;14.50;;;;;8.90;49.10;100475.09;6283059;20;2491976;-50
2023/03/01 09:29:24;;;;;;;;;15.00;14.00;;;;;8.79;48.76;100472.88;6284073;20;2808701;-46
2023/03/01 09:31:54;;;;;;;;;29.00;24.00;;;;;8.97;49.05;100471.19;6283915;20;2854457;-46
2023/03/01 09:34:24;;;;;;;;;26.00;22.00;;;;;8.89;49.01;100467.13;6283981;20;2846254;-47
2023/03/01 09:36:53;;;;;;;;;27.67;23.00;;;;;9.34;49.02;100464.25;6284937;20;2859669;-47
2023/03/01 09:39:22;;;;;;;;;26.50;23.50;;;;;9.32;48.65;100466.16;6314936;20;2838846;-47
2023/03/01 09:42:04;;;;;;;;;25.00;25.00;;;;;8.72;49.74;100457.13;6284999;20;2846100;-47
2023/03/01 09:44:55;;;;;;;;;26.00;25.00;;;;;8.67;49.72;100453.75;6282911;20;2854470;-47
2023/03/01 09:47:35;;;;;;;;;20.33;19.33;;;;;9.08;49.25;100456.47;6283523;20;3562790;-48
2023/03/01 09:50:12;;;;;;;;;20.50;16.50;;;;;9.07;49.43;100452.94;6282573;20;2822604;-50
2023/03/01 09:53:06;;;;;;;;;13.00;12.60;;;;;9.31;49.04;100452.81;6305299;20;2797303;-48
2023/03/01 09:55:46;;;;;;;;;11.00;9.33;;;;;8.99;49.14;100453.25;6283506;20;3491975;-48
2023/03/01 09:58:58;;;;;;;;;14.00;13.00;;;;;9.35;49.11;100449.94;6310857;20;3515915;-45
2023/03/01 10:02:03;;;;;;;;;13.60;11.00;;;;;8.89;50.15;100451.03;6334410;20;2784658;-50
2023/03/01 10:05:11;;;;;;;;;26.00;20.50;;;;;9.85;48.51;100460.19;6276415;20;2500445;-48
2023/03/01 10:08:07;;;;;;;;;24.50;19.00;;;;;9.31;48.57;100445.63;6279822;20;2844031;-51
2023/03/01 10:10:43;;;;;;;;;13.67;13.00;;;;;9.19;49.41;100443.50;6281699;20;3512815;-45
2023/03/01 10:13:29;;;;;;;;;11.00;11.00;;;;;9.45;49.95;100435.19;6309493;20;2790104;-49
2023/03/01 10:16:28;;;;;;;;;25.50;23.00;;;;;9.36;49.14;100435.59;6309857;20;2493975;-46
2023/03/01 10:19:04;;;;;;;;;20.00;19.00;;;;;10.01;49.13;100432.66;6278415;20;2494097;-46
2023/03/01 10:21:45;;;;;;;;;16.00;12.33;;;;;9.47;48.75;100426.19;6276425;20;3533780;-46
2023/03/01 10:24:21;;;;;;;;;22.00;15.00;;;;;10.10;48.28;100432.19;6311147;20;3560735;-50
2023/03/01 10:27:21;;;;;;;;;25.50;22.00;;;;;10.41;46.92;100430.75;6278363;20;2839904;-48
2023/03/01 10:30:27;;;;;;;;;22.50;19.50;;;;;9.70;48.55;100428.69;6278217;20;2500282;-48
2023/03/01 10:32:58;;;;;;;;;20.33;14.33;;;;;10.39;47.65;100421.91;6286248;20;3566020;-47
2023/03/01 10:35:32;;;;;;;;;18.67;11.00;;;;;9.78;48.63;100415.81;6284750;20;2818109;-51
2023/03/01 10:38:09;;;;;;;;;14.00;9.67;;;;;9.90;48.80;100417.06;6316811;20;3507697;-46
2023/03/01 10:40:58;;;;;;;;;11.50;9.00;;;;;9.48;50.34;100409.16;6315888;20;2775381;-49
2023/03/01 10:43:49;;;;;;;;;13.50;13.50;;;;;9.58;50.28;100402.44;6285538;20;2783628;-48
2023/03/01 10:46:33;;;;;;;;;25.00;22.00;;;;;10.21;49.78;100400.34;6287674;20;2854449;-48
2023/03/01 10:49:19;;;;;;;;;12.50;8.50;;;;;9.89;49.90;100402.75;6314638;20;2767039;-52
2023/03/01 10:51:52;;;;;;;;;21.50;18.00;;;;;10.52;48.43;100396.19;6289926;20;2823187;-47
2023/03/01 10:54:34;;;;;;;;;19.00;17.00;;;;;10.73;48.31;100395.09;6285256;20;2825404;-50
2023/03/01 10:57:05;;;;;;;;;19.00;14.00;;;;;10.25;49.25;100388.53;6283809;20;2813941;-50
2023/03/01 10:59:38;;;;;;;;;19.67;14.67;;;;;10.39;49.77;100389.69;6284140;20;3535660;-52
2023/03/01 11:02:30;;;;;;;;;9.50;7.00;;;;;10.41;49.25;100377.94;6315099;20;2755534;-47
2023/03/01 11:05:24;;;;;;;;;29.00;26.00;;;;;10.98;48.47;100372.38;6287968;20;2844066;-48
2023/03/01 11:07:58;;;;;;;;;36.33;30.67;;;;;11.12;47.98;100377.88;6289326;20;3602341;-48
2023/03/01 11:10:32;;;;;;;;;23.00;16.00;;;;;10.77;48.89;100375.19;6281629;20;2489885;-50
2023/03/01 11:13:20;;;;;;;;;18.00;18.00;;;;;10.86;48.84;100367.63;6282936;20;2500371;-50
2023/03/01 11:16:06;;;;;;;;;22.50;19.00;;;;;10.60;48.70;100367.13;6283415;20;2491944;-48
2023/03/01 11:18:35;;;;;;;;;24.00;20.50;;;;;10.84;49.07;100366.81;6284622;20;2839923;-49
2023/03/01 11:21:16;;;;;;;;;14.50;14.50;;;;;10.77;49.02;100348.34;6285599;20;2806594;-47
2023/03/01 11:23:46;;;;;;;;;21.00;21.00;;;;;11.24;47.63;100351.28;6283350;20;2842006;-52
2023/03/01 11:26:17;;;;;;;;;14.00;14.00;;;;;11.38;48.15;100346.03;6284318;20;3531671;-47
2023/03/01 11:28:57;;;;;;;;;16.00;14.00;;;;;11.09;49.21;100348.47;6316263;20;2491980;-49
2023/03/01 11:31:27;;;;;;;;;16.50;16.50;;;;;10.99;49.52;100341.84;6280905;20;2828482;-50
2023/03/01 11:34:40;;;;;;;;;26.50;22.50;;;;;11.10;48.81;100343.97;6281290;20;2852481;-50